createdAt,value
2019-05-02T00:01:29.065Z,78009.59
2019-05-02T00:03:58.688Z,77992.41
2019-05-02T00:06:28.503Z,78002.52
2019-05-02T00:08:57.759Z,77997.46
2019-05-02T00:11:27.982Z,78003.52
2019-05-02T00:13:59.545Z,78000.49
2019-05-02T00:16:29.468Z,77986.34
2019-05-02T00:18:58.690Z,77981.30
2019-05-02T00:21:27.965Z,77984.33
2019-05-02T00:23:59.236Z,77977.25
2019-05-02T00:26:28.545Z,77972.20
2019-05-02T00:28:59.336Z,77971.19
2019-05-02T00:31:30.049Z,77975.23
2019-05-02T00:33:59.315Z,77984.33
2019-05-02T00:36:28.558Z,77972.20
2019-05-02T00:38:57.834Z,77981.30
2019-05-02T00:41:27.113Z,77974.22
2019-05-02T00:43:56.817Z,77980.28
2019-05-02T00:46:30.346Z,77971.19
2019-05-02T00:48:59.742Z,77967.15
2019-05-02T00:51:30.125Z,77971.19
2019-05-02T00:53:59.381Z,77977.25
2019-05-02T00:56:28.616Z,77977.25
2019-05-02T00:59:02.275Z,77968.16
2019-05-02T01:02:05.363Z,77967.15
2019-05-02T01:04:37.515Z,77936.84
2019-05-02T01:07:07.630Z,77955.02
2019-05-02T01:09:36.851Z,77949.97
2019-05-02T01:12:08.316Z,77948.97
2019-05-02T01:14:37.506Z,77951.99
2019-05-02T01:17:07.114Z,77941.89
2019-05-02T01:19:36.727Z,77950.98
2019-05-02T01:22:10.440Z,77955.02
2019-05-02T01:24:39.618Z,77949.97
2019-05-02T01:27:17.857Z,77944.92
2019-05-02T01:30:08.549Z,77933.81
2019-05-02T01:33:01.411Z,77939.88
2019-05-02T01:35:35.690Z,77947.95
2019-05-02T01:38:26.535Z,77942.90
2019-05-02T01:40:54.932Z,77950.98
2019-05-02T01:43:26.109Z,77948.97
2019-05-02T01:45:55.355Z,77946.94
2019-05-02T01:48:25.111Z,77936.84
2019-05-02T01:50:54.391Z,77947.95
2019-05-02T01:53:23.626Z,77933.81
2019-05-02T01:55:57.825Z,77937.84
2019-05-02T01:58:24.519Z,77937.84
2019-05-02T02:00:53.959Z,77932.80
2019-05-02T02:03:23.247Z,77935.83
2019-05-02T02:05:52.513Z,77939.88
2019-05-02T02:08:22.033Z,77937.84
2019-05-02T02:10:56.117Z,77930.78
2019-05-02T02:13:22.726Z,77925.73
2019-05-02T02:15:53.762Z,77930.78
2019-05-02T02:18:27.489Z,77932.80
2019-05-02T02:21:25.511Z,77930.78
2019-05-02T02:24:05.918Z,77922.70
2019-05-02T02:26:37.335Z,77928.75
2019-05-02T02:29:07.791Z,77932.80
2019-05-02T02:31:39.611Z,77930.78
2019-05-02T02:34:08.578Z,77915.63
2019-05-02T02:36:38.222Z,77923.70
2019-05-02T02:39:14.541Z,77926.73
2019-05-02T02:41:39.240Z,77914.61
2019-05-02T02:44:14.893Z,77912.59
2019-05-02T02:46:46.076Z,77911.58
2019-05-02T02:49:21.783Z,77913.60
2019-05-02T02:51:46.304Z,77915.63
2019-05-02T02:54:18.320Z,77914.61
2019-05-02T02:56:47.659Z,77906.53
2019-05-02T02:59:19.559Z,77905.52
2019-05-02T03:01:48.532Z,77908.55
2019-05-02T03:04:18.219Z,77912.59
2019-05-02T03:06:47.857Z,77909.56
2019-05-02T03:09:20.337Z,77902.48
2019-05-02T03:12:53.841Z,77898.45
2019-05-02T03:15:28.126Z,77896.42
2019-05-02T03:17:59.898Z,77900.47
2019-05-02T03:20:26.825Z,77898.45
2019-05-02T03:22:56.050Z,77893.39
2019-05-02T03:25:49.249Z,77883.29
2019-05-02T03:27:57.350Z,77894.41
2019-05-02T03:30:36.253Z,77884.30
2019-05-02T03:33:06.197Z,77883.29
2019-05-02T03:35:41.137Z,77889.35
2019-05-02T03:38:00.697Z,77896.42
2019-05-02T03:40:32.215Z,77887.33
2019-05-02T03:43:01.410Z,77888.34
2019-05-02T03:45:32.067Z,77890.36
2019-05-02T03:48:02.237Z,77884.30
2019-05-02T03:50:32.901Z,77880.26
2019-05-02T03:53:02.624Z,77874.20
2019-05-02T03:55:33.992Z,77883.29
2019-05-02T03:58:13.125Z,77878.23
2019-05-02T04:00:36.213Z,77880.26
2019-05-02T04:03:06.288Z,77877.23
2019-05-02T04:05:40.349Z,77863.08
2019-05-02T04:08:07.262Z,77858.03
2019-05-02T04:11:20.783Z,77855.00
2019-05-02T04:13:52.579Z,77866.11
2019-05-02T04:16:22.470Z,77863.08
2019-05-02T04:18:55.743Z,77866.11
2019-05-02T04:21:25.965Z,77868.13
2019-05-02T04:24:06.668Z,77867.13
2019-05-02T04:26:26.087Z,77861.06
2019-05-02T04:28:56.909Z,77860.05
2019-05-02T04:31:31.805Z,77869.14
2019-05-02T04:33:57.909Z,77860.05
2019-05-02T04:36:27.246Z,77853.98
2019-05-02T04:38:59.547Z,77859.05
2019-05-02T04:41:30.449Z,77855.00
2019-05-02T04:44:01.623Z,77859.05
2019-05-02T04:46:31.416Z,77859.05
2019-05-02T04:49:01.179Z,77845.91
2019-05-02T04:51:31.970Z,77851.97
2019-05-02T04:54:01.743Z,77848.94
2019-05-02T04:56:31.090Z,77841.86
2019-05-02T04:59:01.962Z,77847.93
2019-05-02T05:01:42.084Z,77841.86
2019-05-02T05:04:03.457Z,77840.86
2019-05-02T05:06:33.065Z,77834.80
2019-05-02T05:09:04.021Z,77828.73
2019-05-02T05:11:33.387Z,77832.77
2019-05-02T05:14:03.094Z,77824.69
2019-05-02T05:16:32.325Z,77804.48
2019-05-02T05:19:01.914Z,77818.63
2019-05-02T05:21:31.156Z,77805.49
2019-05-02T05:24:19.375Z,77783.27
2019-05-02T05:26:52.010Z,77761.03
2019-05-02T05:29:23.208Z,77758.01
2019-05-02T05:31:55.119Z,77755.98
2019-05-02T05:34:28.578Z,77769.13
2019-05-02T05:36:54.951Z,77758.01
2019-05-02T05:39:24.204Z,77759.02
2019-05-02T05:41:53.801Z,77765.08
2019-05-02T05:44:27.334Z,77752.95
2019-05-02T05:46:54.066Z,77747.91
2019-05-02T05:49:23.803Z,77709.52
2019-05-02T05:51:54.271Z,77735.78
2019-05-02T05:54:24.608Z,77697.39
2019-05-02T05:56:54.221Z,77689.30
2019-05-02T05:59:28.122Z,77675.16
2019-05-02T06:01:55.161Z,77663.03
2019-05-02T06:04:30.146Z,77663.03
2019-05-02T06:06:59.582Z,77685.27
2019-05-02T06:09:31.266Z,77695.37
2019-05-02T06:11:57.804Z,77699.41
2019-05-02T06:14:27.424Z,77678.19
2019-05-02T06:16:56.904Z,77676.17
2019-05-02T06:19:26.165Z,77665.06
2019-05-02T06:21:55.394Z,77618.59
2019-05-02T06:24:24.669Z,77646.88
2019-05-02T06:26:54.294Z,77639.80
2019-05-02T06:29:23.619Z,77631.72
2019-05-02T06:31:53.217Z,77617.58
2019-05-02T06:34:23.109Z,77582.22
2019-05-02T06:36:52.537Z,77573.13
2019-05-02T06:39:27.217Z,77534.73
2019-05-02T06:41:57.508Z,77519.58
2019-05-02T06:44:26.930Z,77488.26
2019-05-02T06:46:59.269Z,77515.53
2019-05-02T06:49:27.242Z,77443.81
2019-05-02T06:51:57.804Z,77384.20
2019-05-02T06:54:27.513Z,77415.52
2019-05-02T06:56:57.311Z,77418.55
2019-05-02T06:59:26.573Z,77409.46
2019-05-02T07:01:58.666Z,77446.84
2019-05-02T07:04:28.707Z,77461.99
2019-05-02T07:06:59.746Z,77447.84
2019-05-02T07:09:40.311Z,77418.55
2019-05-02T07:12:01.907Z,77429.66
2019-05-02T07:14:31.281Z,77350.87
2019-05-02T07:17:20.106Z,77381.17
2019-05-02T07:19:52.577Z,77420.57
2019-05-02T07:22:22.905Z,77441.78
2019-05-02T07:24:52.379Z,77408.45
2019-05-02T07:27:21.635Z,77408.45
2019-05-02T07:29:52.094Z,77269.04
2019-05-02T07:32:24.884Z,77237.72
2019-05-02T07:34:54.028Z,77301.37
2019-05-02T07:37:23.275Z,77189.23
2019-05-02T07:39:53.216Z,77243.78
2019-05-02T07:42:22.851Z,77225.59
2019-05-02T07:44:52.453Z,77204.39
2019-05-02T07:47:21.741Z,77196.30
2019-05-02T07:49:50.950Z,77218.53
2019-05-02T07:52:20.202Z,77175.09
2019-05-02T07:54:49.488Z,77155.90
2019-05-02T07:57:18.782Z,77201.36
2019-05-02T07:59:49.917Z,77200.34
2019-05-02T08:02:20.282Z,77118.52
2019-05-02T08:04:50.650Z,77022.56
2019-05-02T08:07:21.298Z,77037.71
2019-05-02T08:09:50.895Z,76996.30
2019-05-02T08:12:20.613Z,77043.77
2019-05-02T08:14:50.208Z,77083.17
2019-05-02T08:17:19.557Z,77070.03
2019-05-02T08:19:48.897Z,77088.22
2019-05-02T08:22:18.428Z,77085.19
2019-05-02T08:24:48.234Z,77128.63
2019-05-02T08:27:39.248Z,77153.88
2019-05-02T08:30:14.096Z,77156.91
2019-05-02T08:32:43.343Z,77103.37
2019-05-02T08:35:13.701Z,77155.90
2019-05-02T08:37:44.787Z,77107.41
2019-05-02T08:40:14.140Z,77056.91
2019-05-02T08:42:43.487Z,77030.64
2019-05-02T08:45:13.086Z,77012.45
2019-05-02T08:47:44.195Z,76953.87
2019-05-02T08:50:14.663Z,77014.48
2019-05-02T08:52:44.247Z,77032.66
2019-05-02T08:55:13.770Z,76939.73
2019-05-02T08:57:43.049Z,76944.78
2019-05-02T09:00:13.525Z,76924.58
2019-05-02T09:02:43.282Z,76967.00
2019-05-02T09:05:13.371Z,76963.97
2019-05-02T09:07:43.806Z,76967.00
2019-05-02T09:10:13.792Z,76968.01
2019-05-02T09:12:45.391Z,76885.18
2019-05-02T09:15:15.466Z,76915.48
2019-05-02T09:17:52.702Z,76865.98
2019-05-02T09:20:20.639Z,76828.61
2019-05-02T09:22:54.108Z,76858.92
2019-05-02T09:25:21.997Z,76844.78
2019-05-02T09:27:52.678Z,76900.33
2019-05-02T09:30:25.670Z,76911.44
2019-05-02T09:32:57.173Z,76863.97
2019-05-02T09:35:24.622Z,76823.56
2019-05-02T09:37:53.900Z,76754.88
2019-05-02T09:40:23.525Z,76665.99
2019-05-02T09:42:57.633Z,76652.86
2019-05-02T09:45:33.332Z,76777.09
2019-05-02T09:48:06.911Z,76742.76
2019-05-02T09:50:32.244Z,76715.48
2019-05-02T09:53:02.022Z,76780.13
2019-05-02T09:55:31.968Z,76798.31
2019-05-02T09:58:02.689Z,76765.98
2019-05-02T10:00:57.218Z,76762.95
2019-05-02T10:03:26.709Z,76765.98
2019-05-02T10:05:55.958Z,76761.95
2019-05-02T10:08:25.206Z,76794.27
2019-05-02T10:10:54.536Z,76737.70
2019-05-02T10:13:23.830Z,76729.63
2019-05-02T10:15:53.069Z,76682.16
2019-05-02T10:18:28.331Z,76823.56
2019-05-02T10:20:53.418Z,76842.75
2019-05-02T10:23:23.615Z,76875.08
2019-05-02T10:25:52.948Z,76884.17
2019-05-02T10:28:22.981Z,76844.78
2019-05-02T10:30:56.508Z,76788.21
2019-05-02T10:33:23.358Z,76775.08
2019-05-02T10:35:52.960Z,76743.77
2019-05-02T10:38:22.986Z,76718.52
2019-05-02T10:40:56.178Z,76706.39
2019-05-02T10:43:23.280Z,76793.27
2019-05-02T10:46:01.786Z,76800.33
2019-05-02T10:48:33.208Z,76872.05
2019-05-02T10:51:19.698Z,76864.98
2019-05-02T10:53:54.745Z,76870.03
2019-05-02T10:56:22.152Z,76904.38
2019-05-02T10:58:52.377Z,76933.66
2019-05-02T11:01:22.776Z,76985.19
2019-05-02T11:03:52.991Z,77008.41
2019-05-02T11:06:22.441Z,77051.85
2019-05-02T11:08:52.632Z,77054.88
2019-05-02T11:11:22.549Z,77088.22
2019-05-02T11:14:16.811Z,77079.13
2019-05-02T11:17:01.661Z,77099.33
2019-05-02T11:19:54.206Z,77124.58
2019-05-02T11:22:25.618Z,77149.84
2019-05-02T11:24:54.901Z,77162.97
2019-05-02T11:27:24.181Z,77173.07
2019-05-02T11:29:53.413Z,77186.20
2019-05-02T11:32:23.067Z,77221.56
2019-05-02T11:34:52.606Z,77245.80
2019-05-02T11:37:22.682Z,77246.81
2019-05-02T11:39:59.054Z,77270.05
2019-05-02T11:42:27.218Z,77258.94
2019-05-02T11:44:56.839Z,77237.72
2019-05-02T11:47:26.717Z,77224.59
2019-05-02T11:49:56.147Z,77185.19
2019-05-02T11:52:27.344Z,77182.16
2019-05-02T11:54:56.790Z,77159.94
2019-05-02T11:57:28.928Z,77161.95
2019-05-02T11:59:59.499Z,77177.11
2019-05-02T12:02:58.378Z,77157.92
2019-05-02T12:05:35.926Z,77172.06
2019-05-02T12:08:07.988Z,77143.78
2019-05-02T12:10:37.405Z,77162.97
2019-05-02T12:13:11.965Z,77167.02
2019-05-02T12:15:41.583Z,77176.10
2019-05-02T12:18:09.785Z,77171.05
2019-05-02T12:20:39.036Z,77179.13
2019-05-02T12:23:09.212Z,77170.04
2019-05-02T12:25:38.566Z,77156.91
2019-05-02T12:28:08.208Z,77139.73
2019-05-02T12:30:37.899Z,77161.95
2019-05-02T12:33:07.430Z,77174.08
2019-05-02T12:35:37.005Z,77196.30
2019-05-02T12:38:06.789Z,77219.54
2019-05-02T12:40:37.859Z,77270.05
2019-05-02T12:43:07.490Z,77288.23
2019-05-02T12:45:37.263Z,77295.30
2019-05-02T12:48:06.488Z,77292.27
2019-05-02T12:50:35.757Z,77313.48
2019-05-02T12:53:05.449Z,77294.30
2019-05-02T12:55:36.233Z,77284.19
2019-05-02T12:58:05.466Z,77275.09
2019-05-02T13:00:34.862Z,77275.09
2019-05-02T13:03:12.271Z,77251.87
2019-05-02T13:05:42.636Z,77253.89
2019-05-02T13:08:13.880Z,77263.98
2019-05-02T13:11:02.016Z,77270.05
2019-05-02T13:13:29.986Z,77252.88
2019-05-02T13:16:01.634Z,77231.66
2019-05-02T13:18:36.805Z,77179.13
2019-05-02T13:21:08.076Z,77145.80
2019-05-02T13:23:54.531Z,77175.09
2019-05-02T13:26:27.134Z,77180.14
2019-05-02T13:28:55.087Z,77148.83
2019-05-02T13:31:33.400Z,77125.59
2019-05-02T13:34:14.869Z,77097.31
2019-05-02T13:36:45.994Z,77049.83
2019-05-02T13:39:42.427Z,77051.85
2019-05-02T13:42:12.641Z,77063.97
2019-05-02T13:45:02.349Z,77095.29
2019-05-02T13:47:32.541Z,77080.13
2019-05-02T13:50:03.964Z,77069.02
2019-05-02T13:52:33.297Z,77062.96
2019-05-02T13:55:03.725Z,77018.52
2019-05-02T13:57:36.468Z,77003.36
2019-05-02T14:00:04.936Z,77072.05
2019-05-02T14:02:38.985Z,77034.68
2019-05-02T14:05:12.763Z,76984.17
2019-05-02T14:07:48.221Z,76983.16
2019-05-02T14:10:32.126Z,77000.34
2019-05-02T14:13:03.209Z,77019.52
2019-05-02T14:15:37.863Z,77007.41
2019-05-02T14:18:07.413Z,76986.19
2019-05-02T14:20:37.470Z,77037.71
2019-05-02T14:23:07.572Z,77009.42
2019-05-02T14:25:36.994Z,77037.71
2019-05-02T14:28:06.554Z,76987.20
2019-05-02T14:30:43.308Z,76924.58
2019-05-02T14:33:15.157Z,76855.89
2019-05-02T14:35:44.408Z,76851.84
2019-05-02T14:38:14.633Z,76856.90
2019-05-02T14:40:52.536Z,76872.05
2019-05-02T14:43:44.594Z,76891.24
2019-05-02T14:46:12.578Z,76872.05
2019-05-02T14:48:45.209Z,76819.52
2019-05-02T14:51:16.895Z,76809.42
2019-05-02T14:53:45.714Z,76782.16
2019-05-02T14:56:33.091Z,76793.27
2019-05-02T14:59:02.722Z,76842.75
2019-05-02T15:01:32.258Z,76918.52
2019-05-02T15:04:04.065Z,76934.67
2019-05-02T15:06:33.771Z,76972.05
2019-05-02T15:09:03.703Z,76983.16
2019-05-02T15:11:34.934Z,76983.16
2019-05-02T15:14:04.270Z,76982.15
2019-05-02T15:16:42.360Z,76957.91
2019-05-02T15:19:04.600Z,76913.47
2019-05-02T15:21:47.116Z,76890.23
2019-05-02T15:24:14.114Z,76850.84
2019-05-02T15:26:43.711Z,76827.61
2019-05-02T15:29:19.685Z,76768.02
2019-05-02T15:31:49.923Z,76807.41
2019-05-02T15:34:25.539Z,76796.30
2019-05-02T15:36:54.779Z,76859.92
2019-05-02T15:41:54.979Z,76797.30
2019-05-02T15:44:26.871Z,76781.14
2019-05-02T15:46:58.337Z,76789.22
2019-05-02T15:49:26.547Z,76840.73
2019-05-02T15:51:55.811Z,76833.66
2019-05-02T15:54:25.059Z,76830.63
2019-05-02T15:57:05.442Z,76855.89
2019-05-02T15:59:37.482Z,76881.14
2019-05-02T16:02:13.082Z,76887.20
2019-05-02T16:04:42.331Z,76897.30
2019-05-02T16:07:12.239Z,76870.03
2019-05-02T16:09:41.771Z,76860.94
2019-05-02T16:12:13.023Z,76858.92
2019-05-02T16:14:42.620Z,76836.70
2019-05-02T16:17:12.583Z,76840.73
2019-05-02T16:19:46.913Z,76819.52
2019-05-02T16:22:17.687Z,76811.44
2019-05-02T16:24:49.362Z,76823.56
2019-05-02T16:27:23.721Z,76872.05
2019-05-02T16:29:49.597Z,76929.63
2019-05-02T16:32:35.807Z,76980.13
2019-05-02T16:35:11.962Z,76977.10
2019-05-02T16:37:36.813Z,76979.13
2019-05-02T16:40:08.997Z,77004.38
2019-05-02T16:42:38.451Z,77010.44
2019-05-02T16:45:09.279Z,77018.52
2019-05-02T16:47:38.607Z,77014.48
2019-05-02T16:50:12.047Z,77005.38
2019-05-02T16:52:43.609Z,77019.52
2019-05-02T16:55:20.559Z,77019.52
2019-05-02T16:57:44.196Z,76996.30
2019-05-02T17:00:16.538Z,76977.10
2019-05-02T17:02:46.518Z,76987.20
2019-05-02T17:05:15.987Z,77004.38
2019-05-02T17:08:10.740Z,77016.50
2019-05-02T17:10:53.685Z,77028.62
2019-05-02T17:13:22.372Z,77044.78
2019-05-02T17:15:52.310Z,77057.91
2019-05-02T17:18:22.834Z,77083.17
2019-05-02T17:20:56.652Z,77096.30
2019-05-02T17:23:23.893Z,77086.20
2019-05-02T17:25:53.138Z,77074.08
2019-05-02T17:28:22.497Z,77061.95
2019-05-02T17:30:52.600Z,77096.30
2019-05-02T17:33:21.897Z,77084.17
2019-05-02T17:35:54.184Z,77116.50
2019-05-02T17:38:25.046Z,77125.59
2019-05-02T17:40:54.432Z,77139.73
2019-05-02T17:43:24.686Z,77126.60
2019-05-02T17:45:53.917Z,77150.84
2019-05-02T17:48:23.550Z,77156.91
2019-05-02T17:51:12.414Z,77171.05
2019-05-02T17:53:49.287Z,77186.20
2019-05-02T17:56:20.311Z,77179.13
2019-05-02T17:58:47.289Z,77205.40
2019-05-02T18:01:21.645Z,77224.59
2019-05-02T18:03:52.029Z,77224.59
2019-05-02T18:06:32.417Z,77211.45
2019-05-02T18:08:55.301Z,77225.59
2019-05-02T18:11:24.113Z,77228.63
2019-05-02T18:13:53.399Z,77216.51
2019-05-02T18:16:22.725Z,77199.34
2019-05-02T18:18:52.288Z,77197.31
2019-05-02T18:21:25.491Z,77167.02
2019-05-02T18:23:57.271Z,77160.95
2019-05-02T18:26:24.205Z,77220.55
2019-05-02T18:28:57.231Z,77235.70
2019-05-02T18:31:25.163Z,77299.34
2019-05-02T18:33:54.380Z,77343.80
2019-05-02T18:36:26.821Z,77370.06
2019-05-02T18:39:00.566Z,77385.22
2019-05-02T18:41:27.171Z,77403.40
2019-05-02T18:43:56.395Z,77405.42
2019-05-02T18:46:25.640Z,77393.30
2019-05-02T18:48:55.222Z,77411.48
2019-05-02T18:51:24.452Z,77413.50
2019-05-02T18:53:58.038Z,77419.56
2019-05-02T18:56:24.642Z,77408.45
2019-05-02T18:58:54.195Z,77419.56
2019-05-02T19:01:24.038Z,77416.53
2019-05-02T19:03:56.166Z,77406.43
2019-05-02T19:06:27.893Z,77409.46
2019-05-02T19:08:57.899Z,77408.45
2019-05-02T19:11:32.005Z,77416.53
2019-05-02T19:13:58.107Z,77416.53
2019-05-02T19:16:28.857Z,77420.57
2019-05-02T19:18:58.562Z,77422.59
2019-05-02T19:21:32.050Z,77459.97
2019-05-02T19:24:02.125Z,77484.22
2019-05-02T19:26:33.152Z,77517.55
2019-05-02T19:29:17.172Z,77542.81
2019-05-02T19:31:52.326Z,77563.02
2019-05-02T19:34:25.068Z,77569.08
2019-05-02T19:36:53.038Z,77585.25
2019-05-02T19:39:24.211Z,77593.33
2019-05-02T19:41:53.423Z,77594.34
2019-05-02T19:44:28.893Z,77603.43
2019-05-02T19:46:54.056Z,77624.64
2019-05-02T19:49:25.403Z,77647.88
2019-05-02T19:51:56.402Z,77646.88
2019-05-02T19:54:25.719Z,77651.92
2019-05-02T19:56:54.953Z,77679.20
2019-05-02T19:59:26.289Z,77725.68
2019-05-02T20:02:01.396Z,77761.03
2019-05-02T20:04:27.816Z,77780.23
2019-05-02T20:06:57.050Z,77795.39
2019-05-02T20:09:26.602Z,77796.40
2019-05-02T20:11:57.330Z,77805.49
2019-05-02T20:14:26.625Z,77819.64
2019-05-02T20:16:57.162Z,77823.68
2019-05-02T20:19:27.193Z,77833.78
2019-05-02T20:22:07.259Z,77824.69
2019-05-02T20:25:00.185Z,77832.77
2019-05-02T20:27:28.995Z,77826.71
2019-05-02T20:29:58.219Z,77828.73
2019-05-02T20:32:27.811Z,77828.73
2019-05-02T20:34:57.042Z,77822.67
2019-05-02T20:37:26.290Z,77802.46
2019-05-02T20:39:55.803Z,77805.49
2019-05-02T20:42:25.193Z,77796.40
2019-05-02T20:44:54.424Z,77797.41
2019-05-02T20:47:25.226Z,77804.48
2019-05-02T20:49:55.058Z,77804.48
2019-05-02T20:52:24.335Z,77830.75
2019-05-02T20:54:53.868Z,77842.88
2019-05-02T20:57:23.162Z,77848.94
2019-05-02T20:59:52.691Z,77852.98
2019-05-02T21:02:22.047Z,77849.95
2019-05-02T21:04:52.064Z,77855.00
2019-05-02T21:07:39.744Z,77864.09
2019-05-02T21:10:37.175Z,77859.05
2019-05-02T21:13:06.402Z,77862.08
2019-05-02T21:15:36.002Z,77884.30
2019-05-02T21:18:05.221Z,77890.36
2019-05-02T21:20:34.465Z,77911.58
2019-05-02T21:23:04.117Z,77923.70
2019-05-02T21:25:33.335Z,77927.75
2019-05-02T21:28:03.241Z,77934.82
2019-05-02T21:30:34.489Z,77939.88
2019-05-02T21:33:04.081Z,77939.88
2019-05-02T21:35:33.791Z,77937.84
2019-05-02T21:38:03.049Z,77929.77
2019-05-02T21:40:32.737Z,77912.59
2019-05-02T21:43:02.530Z,77921.69
2019-05-02T21:45:32.175Z,77913.60
2019-05-02T21:48:02.307Z,77926.73
2019-05-02T21:50:55.710Z,77934.82
2019-05-02T21:53:55.051Z,77948.97
2019-05-02T21:56:37.718Z,77951.99
2019-05-02T21:59:13.462Z,77950.98
2019-05-02T22:01:51.893Z,77962.09
2019-05-02T22:04:22.458Z,77963.11
2019-05-02T22:06:52.416Z,77955.02
2019-05-02T22:09:23.122Z,77966.14
2019-05-02T22:11:52.577Z,77976.24
2019-05-02T22:14:22.433Z,77981.30
2019-05-02T22:16:52.993Z,77968.16
2019-05-02T22:19:22.560Z,77965.13
2019-05-02T22:21:52.493Z,77969.17
2019-05-02T22:24:22.281Z,77954.02
2019-05-02T22:26:52.637Z,77945.94
2019-05-02T22:29:22.423Z,77925.73
2019-05-02T22:31:52.167Z,77914.61
2019-05-02T22:34:22.831Z,77901.48
2019-05-02T22:36:54.341Z,77907.54
2019-05-02T22:39:42.148Z,77911.58
2019-05-02T22:42:12.817Z,77889.35
2019-05-02T22:44:42.316Z,77906.53
2019-05-02T22:47:14.070Z,77913.60
2019-05-02T22:49:43.134Z,77899.45
2019-05-02T22:52:14.317Z,77901.48
2019-05-02T22:54:44.102Z,77914.61
2019-05-02T22:57:14.226Z,77911.58
2019-05-02T22:59:43.695Z,77902.48
2019-05-02T23:02:13.617Z,77895.41
2019-05-02T23:04:42.914Z,77913.60
2019-05-02T23:07:12.638Z,77893.39
2019-05-02T23:09:43.707Z,77898.45
2019-05-02T23:12:13.372Z,77897.44
2019-05-02T23:14:42.596Z,77889.35
2019-05-02T23:17:12.786Z,77884.30
2019-05-02T23:19:42.525Z,77900.47
2019-05-02T23:22:12.916Z,77884.30
2019-05-02T23:25:02.902Z,77897.44
2019-05-02T23:27:42.368Z,77892.38
2019-05-02T23:30:15.029Z,77898.45
2019-05-02T23:32:44.306Z,77899.45
2019-05-02T23:35:14.370Z,77902.48
2019-05-02T23:37:44.039Z,77899.45
2019-05-02T23:40:13.872Z,77900.47
2019-05-02T23:42:43.125Z,77897.44
2019-05-02T23:45:12.584Z,77913.60
2019-05-02T23:47:42.313Z,77911.58
2019-05-02T23:50:12.144Z,77924.72
2019-05-02T23:52:41.866Z,77929.77
2019-05-02T23:55:12.292Z,77919.66
2019-05-02T23:57:42.193Z,77917.64
